Heselton, Kentucky
Current Conditions -  °F | °C
As of 3:15 PM on Sunday 23 Nov 2014 (Local Time) from KFGX Reporting Station
Moderate Rain Moderate Rain  
Wind Chill: 60°   Ceiling: 7500
Heat Index: 60°   Visibility: 10mi
Dew Point: 47°   Wind: 12mph
Humidity: 63%   Direction: 140°SE
Pressure: 29.72"   Gusts: 20mph
Location:  38.4929°N, 83.3898°W
Report Text: KFGX 232015Z AUTO 14010G17KT 10SM RA SCT040 BKN075 OVC100 16/09 A2972 RMK AO2 T01560086
Loading
Personal Weather Stations






























Interactive Weather Map New forecast layout! Learn more

10-Day Weather Forecast

Advertisements
Track Severe Weather on mobile